Aérodrome :







RETROUVEZ-NOUS SUR...

 
LOGIN :

S'inscrire | Disclaimer

   EN    FR    IT 

 









Légende :    VFR   VFR Marginal   IFR   IFR Intensif   IFR Très Intensif
Visi : 
Plafond : 
>= 8 km
>= 3000ft
5 à 8 km
1000 à 3000 ft
1500m à 5 km
500 à 1000 ft
800 à 1500m
200 à 500 ft
< 800m
< 200 ft
Symboles :   Orages  Brouillard  Fortes neiges  Fortes précipitations  Vent > 20 kt






- Altitude de l'aérodrome : 276 ft
- Code IATA : BVB


SBBV - Boa Vista Int.

DERNIER METAR :
  • 242100Z 12009KT 9999 SCT040 FEW045TCU BKN080 32/21 Q1008

METARs EXPIRÉS :
  • 242000Z 12010KT 9999 VCSH BKN040 FEW045TCU BKN080 33/20 Q1008
  • 241900Z 13010KT 9999 BKN040 BKN080 33/20 Q1009

TAF TAF SBBV
Valide du 24 à 18h jusqu'au 25 à 18h UTC


241500Z 2418/2518 13015KT 9999 SCT025 TX35/2419Z TN25/2510Z
BECMG 2422/2424 SCT025 FEW030TCU
BECMG 2500/2502 FEW020
BECMG 2514/2516 09015KT SCT030 RMK PGZ



MET'MAP, la Météo Aéronautique d'un coup d'oeil ! - Copyright ORBIFLY Décembre 2007 - Disclaimer

ORBIFLY MET'MAP TEAM :

Programmation & Développement : Alexandra Zaïnal
Sur une idée originale de : Baudouin d'Aumeries
Assistance à la programmation : Marc-Olivier Méhu
Soutien technique & logistique : Manuel Goepfert

Contact : metmap@orbifly.com




SOURCES & CREDITS :

   NOAA